sensor_id;sensor_type;location;lat;lon;timestamp;temperature;humidity
30134;DHT22;16946;49.984;10.672;2022-11-20T00:00:23;-0.40;99.90
30134;DHT22;16946;49.984;10.672;2022-11-20T00:00:54;-0.40;99.90
30134;DHT22;16946;49.984;10.672;2022-11-20T00:01:25;-0.40;99.90
30134;DHT22;16946;49.984;10.672;2022-11-20T00:01:56;-0.40;99.90
30134;DHT22;16946;49.984;10.672;2022-11-20T00:02:27;-0.30;99.90
30134;DHT22;16946;49.984;10.672;2022-11-20T00:02:57;-0.20;99.90
30134;DHT22;16946;49.984;10.672;2022-11-20T00:03:28;-0.20;99.90
30134;DHT22;16946;49.984;10.672;2022-11-20T00:03:59;-0.10;99.90
30134;DHT22;16946;49.984;10.672;2022-11-20T00:04:29;-0.10;99.90
30134;DHT22;16946;49.984;10.672;2022-11-20T00:05:00;-0.10;99.90
30134;DHT22;16946;49.984;10.672;2022-11-20T00:05:32;-0.10;99.90
30134;DHT22;16946;49.984;10.672;2022-11-20T00:06:08;0.00;99.90
30134;DHT22;16946;49.984;10.672;2022-11-20T00:06:39;0.00;99.90
30134;DHT22;16946;49.984;10.672;2022-11-20T00:07:10;0.00;99.90
30134;DHT22;16946;49.984;10.672;2022-11-20T00:07:40;0.00;99.90
30134;DHT22;16946;49.984;10.672;2022-11-20T00:08:11;0.00;99.90
30134;DHT22;16946;49.984;10.672;2022-11-20T00:08:42;0.00;99.90
30134;DHT22;16946;49.984;10.672;2022-11-20T00:09:13;0.00;99.90
30134;DHT22;16946;49.984;10.672;2022-11-20T00:09:43;0.00;99.90
30134;DHT22;16946;49.984;10.672;2022-11-20T00:10:14;0.00;99.90
30134;DHT22;16946;49.984;10.672;2022-11-20T00:10:45;0.00;99.90
30134;DHT22;16946;49.984;10.672;2022-11-20T00:11:20;0.00;99.90
30134;DHT22;16946;49.984;10.672;2022-11-20T00:11:51;0.00;99.90
30134;DHT22;16946;49.984;10.672;2022-11-20T00:12:22;0.00;99.90
30134;DHT22;16946;49.984;10.672;2022-11-20T00:12:53;0.00;99.90
30134;DHT22;16946;49.984;10.672;2022-11-20T00:13:23;0.00;99.90
30134;DHT22;16946;49.984;10.672;2022-11-20T00:13:56;0.00;99.90
30134;DHT22;16946;49.984;10.672;2022-11-20T00:14:29;-0.10;99.90
30134;DHT22;16946;49.984;10.672;2022-11-20T00:15:00;-0.20;99.90
30134;DHT22;16946;49.984;10.672;2022-11-20T00:15:31;-0.30;99.90
30134;DHT22;16946;49.984;10.672;2022-11-20T00:16:03;-0.40;99.90
30134;DHT22;16946;49.984;10.672;2022-11-20T00:16:34;-0.40;99.90
30134;DHT22;16946;49.984;10.672;2022-11-20T00:17:05;-0.50;99.90
30134;DHT22;16946;49.984;10.672;2022-11-20T00:17:35;-0.50;99.90
30134;DHT22;16946;49.984;10.672;2022-11-20T00:18:06;-0.50;99.90
30134;DHT22;16946;49.984;10.672;2022-11-20T00:18:36;-0.50;99.90
30134;DHT22;16946;49.984;10.672;2022-11-20T00:19:07;-0.50;99.90
30134;DHT22;16946;49.984;10.672;2022-11-20T00:19:37;-0.50;99.90
30134;DHT22;16946;49.984;10.672;2022-11-20T00:20:08;-0.50;99.90
30134;DHT22;16946;49.984;10.672;2022-11-20T00:20:39;-0.50;99.90
30134;DHT22;16946;49.984;10.672;2022-11-20T00:21:13;-0.50;99.90
30134;DHT22;16946;49.984;10.672;2022-11-20T00:21:44;-0.40;99.90
30134;DHT22;16946;49.984;10.672;2022-11-20T00:22:14;-0.40;99.90
30134;DHT22;16946;49.984;10.672;2022-11-20T00:22:45;-0.50;99.90
30134;DHT22;16946;49.984;10.672;2022-11-20T00:23:15;-0.50;99.90
30134;DHT22;16946;49.984;10.672;2022-11-20T00:23:46;-0.40;99.90
30134;DHT22;16946;49.984;10.672;2022-11-20T00:24:16;-0.40;99.90
30134;DHT22;16946;49.984;10.672;2022-11-20T00:24:47;-0.40;99.90
30134;DHT22;16946;49.984;10.672;2022-11-20T00:25:18;-0.40;99.90
30134;DHT22;16946;49.984;10.672;2022-11-20T00:25:48;-0.40;99.90
30134;DHT22;16946;49.984;10.672;2022-11-20T00:26:20;-0.40;99.90
30134;DHT22;16946;49.984;10.672;2022-11-20T00:26:51;-0.40;99.90
30134;DHT22;16946;49.984;10.672;2022-11-20T00:27:21;-0.40;99.90
30134;DHT22;16946;49.984;10.672;2022-11-20T00:27:52;-0.40;99.90
30134;DHT22;16946;49.984;10.672;2022-11-20T00:28:22;-0.40;99.90
30134;DHT22;16946;49.984;10.672;2022-11-20T00:28:54;-0.40;99.90
30134;DHT22;16946;49.984;10.672;2022-11-20T00:29:25;-0.40;99.90
30134;DHT22;16946;49.984;10.672;2022-11-20T00:29:56;-0.30;99.90
30134;DHT22;16946;49.984;10.672;2022-11-20T00:30:26;-0.30;99.90
30134;DHT22;16946;49.984;10.672;2022-11-20T00:31:05;-0.30;99.90
30134;DHT22;16946;49.984;10.672;2022-11-20T00:31:36;-0.30;99.90
30134;DHT22;16946;49.984;10.672;2022-11-20T00:32:06;-0.30;99.90
30134;DHT22;16946;49.984;10.672;2022-11-20T00:32:37;-0.40;99.90
30134;DHT22;16946;49.984;10.672;2022-11-20T00:33:07;-0.40;99.90
30134;DHT22;16946;49.984;10.672;2022-11-20T00:33:38;-0.40;99.90
30134;DHT22;16946;49.984;10.672;2022-11-20T00:34:09;-0.40;99.90
30134;DHT22;16946;49.984;10.672;2022-11-20T00:34:39;-0.50;99.90
30134;DHT22;16946;49.984;10.672;2022-11-20T00:35:10;-0.50;99.90
30134;DHT22;16946;49.984;10.672;2022-11-20T00:35:41;-0.50;99.90
30134;DHT22;16946;49.984;10.672;2022-11-20T00:36:13;-0.60;99.90
30134;DHT22;16946;49.984;10.672;2022-11-20T00:36:44;-0.70;99.90
30134;DHT22;16946;49.984;10.672;2022-11-20T00:37:15;-0.60;99.90
30134;DHT22;16946;49.984;10.672;2022-11-20T00:37:45;-0.60;99.90
30134;DHT22;16946;49.984;10.672;2022-11-20T00:38:16;-0.60;99.90
30134;DHT22;16946;49.984;10.672;2022-11-20T00:38:50;-0.60;99.90
30134;DHT22;16946;49.984;10.672;2022-11-20T00:39:21;-0.70;99.90
30134;DHT22;16946;49.984;10.672;2022-11-20T00:39:51;-0.60;99.90
30134;DHT22;16946;49.984;10.672;2022-11-20T00:40:22;-0.60;99.90
30134;DHT22;16946;49.984;10.672;2022-11-20T00:41:00;-0.60;99.90
30134;DHT22;16946;49.984;10.672;2022-11-20T00:41:30;-0.70;99.90
30134;DHT22;16946;49.984;10.672;2022-11-20T00:42:01;-0.70;99.90
30134;DHT22;16946;49.984;10.672;2022-11-20T00:42:31;-0.60;99.90
30134;DHT22;16946;49.984;10.672;2022-11-20T00:43:03;-0.60;99.90
30134;DHT22;16946;49.984;10.672;2022-11-20T00:43:34;-0.70;99.90
30134;DHT22;16946;49.984;10.672;2022-11-20T00:44:04;-0.60;99.90
30134;DHT22;16946;49.984;10.672;2022-11-20T00:44:35;-0.70;99.90
30134;DHT22;16946;49.984;10.672;2022-11-20T00:45:06;-0.70;99.90
30134;DHT22;16946;49.984;10.672;2022-11-20T00:45:37;-0.70;99.90
30134;DHT22;16946;49.984;10.672;2022-11-20T00:46:10;-0.70;99.90
30134;DHT22;16946;49.984;10.672;2022-11-20T00:46:42;-0.70;99.90
30134;DHT22;16946;49.984;10.672;2022-11-20T00:47:12;-0.70;99.90
30134;DHT22;16946;49.984;10.672;2022-11-20T00:47:43;-0.70;99.90
30134;DHT22;16946;49.984;10.672;2022-11-20T00:48:14;-0.70;99.90
30134;DHT22;16946;49.984;10.672;2022-11-20T00:48:45;-0.70;99.90
30134;DHT22;16946;49.984;10.672;2022-11-20T00:49:15;-0.70;99.90
30134;DHT22;16946;49.984;10.672;2022-11-20T00:49:46;-0.70;99.90
30134;DHT22;16946;49.984;10.672;2022-11-20T00:50:16;-0.70;99.90
30134;DHT22;16946;49.984;10.672;2022-11-20T00:50:47;-0.70;99.90
30134;DHT22;16946;49.984;10.672;2022-11-20T00:51:20;-0.70;99.90
30134;DHT22;16946;49.984;10.672;2022-11-20T00:51:50;-0.70;99.90
30134;DHT22;16946;49.984;10.672;2022-11-20T00:52:21;-0.80;99.90
30134;DHT22;16946;49.984;10.672;2022-11-20T00:52:52;-0.70;99.90
30134;DHT22;16946;49.984;10.672;2022-11-20T00:53:22;-0.70;99.90
30134;DHT22;16946;49.984;10.672;2022-11-20T00:53:57;-0.80;99.90
30134;DHT22;16946;49.984;10.672;2022-11-20T00:54:30;-0.80;99.90
30134;DHT22;16946;49.984;10.672;2022-11-20T00:55:00;-0.80;99.90
30134;DHT22;16946;49.984;10.672;2022-11-20T00:55:31;-0.80;99.90
30134;DHT22;16946;49.984;10.672;2022-11-20T00:56:04;-0.80;99.90
30134;DHT22;16946;49.984;10.672;2022-11-20T00:56:35;-0.70;99.90
30134;DHT22;16946;49.984;10.672;2022-11-20T00:57:06;-0.70;99.90
30134;DHT22;16946;49.984;10.672;2022-11-20T00:57:36;-0.70;99.90
30134;DHT22;16946;49.984;10.672;2022-11-20T00:58:07;-0.70;99.90
30134;DHT22;16946;49.984;10.672;2022-11-20T00:58:39;-0.70;99.90
30134;DHT22;16946;49.984;10.672;2022-11-20T00:59:10;-0.70;99.90
30134;DHT22;16946;49.984;10.672;2022-11-20T00:59:41;-0.80;99.90
30134;DHT22;16946;49.984;10.672;2022-11-20T01:00:11;-0.90;99.90
30134;DHT22;16946;49.984;10.672;2022-11-20T01:00:42;-0.90;99.90
30134;DHT22;16946;49.984;10.672;2022-11-20T01:01:21;-0.90;99.90
30134;DHT22;16946;49.984;10.672;2022-11-20T01:01:51;-1.00;99.90
30134;DHT22;16946;49.984;10.672;2022-11-20T01:02:22;-1.00;99.90
30134;DHT22;16946;49.984;10.672;2022-11-20T01:02:55;-1.00;99.90
30134;DHT22;16946;49.984;10.672;2022-11-20T01:03:25;-1.00;99.90
30134;DHT22;16946;49.984;10.672;2022-11-20T01:03:58;-1.00;99.90
30134;DHT22;16946;49.984;10.672;2022-11-20T01:04:29;-1.00;99.90
30134;DHT22;16946;49.984;10.672;2022-11-20T01:04:59;-1.00;99.90
30134;DHT22;16946;49.984;10.672;2022-11-20T01:05:34;-0.90;99.90
30134;DHT22;16946;49.984;10.672;2022-11-20T01:06:16;-0.90;99.90
30134;DHT22;16946;49.984;10.672;2022-11-20T01:06:47;-0.90;99.90
30134;DHT22;16946;49.984;10.672;2022-11-20T01:07:17;-0.80;99.90
30134;DHT22;16946;49.984;10.672;2022-11-20T01:07:48;-0.80;99.90
30134;DHT22;16946;49.984;10.672;2022-11-20T01:08:18;-0.70;99.90
30134;DHT22;16946;49.984;10.672;2022-11-20T01:08:50;-0.70;99.90
30134;DHT22;16946;49.984;10.672;2022-11-20T01:09:21;-0.70;99.90
30134;DHT22;16946;49.984;10.672;2022-11-20T01:09:51;-0.70;99.90
30134;DHT22;16946;49.984;10.672;2022-11-20T01:10:22;-0.70;99.90
30134;DHT22;16946;49.984;10.672;2022-11-20T01:10:52;-0.70;99.90
30134;DHT22;16946;49.984;10.672;2022-11-20T01:11:26;-0.70;99.90
30134;DHT22;16946;49.984;10.672;2022-11-20T01:11:56;-0.70;99.90
30134;DHT22;16946;49.984;10.672;2022-11-20T01:12:27;-0.80;99.90
30134;DHT22;16946;49.984;10.672;2022-11-20T01:12:57;-0.80;99.90
30134;DHT22;16946;49.984;10.672;2022-11-20T01:13:55;-0.90;99.90
30134;DHT22;16946;49.984;10.672;2022-11-20T01:14:26;-1.00;99.90
30134;DHT22;16946;49.984;10.672;2022-11-20T01:14:57;-1.00;99.90
30134;DHT22;16946;49.984;10.672;2022-11-20T01:15:27;-1.00;99.90
30134;DHT22;16946;49.984;10.672;2022-11-20T01:16:47;-1.00;99.90
30134;DHT22;16946;49.984;10.672;2022-11-20T01:17:18;-1.00;99.90
30134;DHT22;16946;49.984;10.672;2022-11-20T01:17:49;-0.90;99.90
30134;DHT22;16946;49.984;10.672;2022-11-20T01:18:19;-0.90;99.90
30134;DHT22;16946;49.984;10.672;2022-11-20T01:18:51;-0.90;99.90
30134;DHT22;16946;49.984;10.672;2022-11-20T01:19:23;-1.00;99.90
30134;DHT22;16946;49.984;10.672;2022-11-20T01:19:53;-1.00;99.90
30134;DHT22;16946;49.984;10.672;2022-11-20T01:20:24;-1.10;99.90
30134;DHT22;16946;49.984;10.672;2022-11-20T01:20:54;-1.10;99.90
30134;DHT22;16946;49.984;10.672;2022-11-20T01:21:31;-1.10;99.90
30134;DHT22;16946;49.984;10.672;2022-11-20T01:22:02;-1.10;99.90
30134;DHT22;16946;49.984;10.672;2022-11-20T01:22:32;-1.10;99.90
30134;DHT22;16946;49.984;10.672;2022-11-20T01:23:03;-1.10;99.90
30134;DHT22;16946;49.984;10.672;2022-11-20T01:23:35;-1.10;99.90
30134;DHT22;16946;49.984;10.672;2022-11-20T01:24:08;-1.20;99.90
30134;DHT22;16946;49.984;10.672;2022-11-20T01:24:38;-1.20;99.90
30134;DHT22;16946;49.984;10.672;2022-11-20T01:25:09;-1.20;99.90
30134;DHT22;16946;49.984;10.672;2022-11-20T01:25:39;-1.30;99.90
30134;DHT22;16946;49.984;10.672;2022-11-20T01:26:13;-1.30;99.90
30134;DHT22;16946;49.984;10.672;2022-11-20T01:26:45;-1.30;99.90
30134;DHT22;16946;49.984;10.672;2022-11-20T01:27:17;-1.40;99.90
30134;DHT22;16946;49.984;10.672;2022-11-20T01:27:47;-1.40;99.90
30134;DHT22;16946;49.984;10.672;2022-11-20T01:28:18;-1.40;99.90
30134;DHT22;16946;49.984;10.672;2022-11-20T01:28:49;-1.40;99.90
30134;DHT22;16946;49.984;10.672;2022-11-20T01:29:23;-1.40;99.90
30134;DHT22;16946;49.984;10.672;2022-11-20T01:29:54;-1.40;99.90
30134;DHT22;16946;49.984;10.672;2022-11-20T01:30:24;-1.40;99.90
30134;DHT22;16946;49.984;10.672;2022-11-20T01:30:55;-1.30;99.90
30134;DHT22;16946;49.984;10.672;2022-11-20T01:31:27;-1.20;99.90
30134;DHT22;16946;49.984;10.672;2022-11-20T01:31:58;-1.20;99.90
30134;DHT22;16946;49.984;10.672;2022-11-20T01:32:28;-1.20;99.90
30134;DHT22;16946;49.984;10.672;2022-11-20T01:32:59;-1.10;99.90
30134;DHT22;16946;49.984;10.672;2022-11-20T01:33:29;-1.10;99.90
30134;DHT22;16946;49.984;10.672;2022-11-20T01:34:11;-1.10;99.90
30134;DHT22;16946;49.984;10.672;2022-11-20T01:34:42;-1.20;99.90
30134;DHT22;16946;49.984;10.672;2022-11-20T01:35:13;-1.20;99.90
30134;DHT22;16946;49.984;10.672;2022-11-20T01:35:43;-1.30;99.90
30134;DHT22;16946;49.984;10.672;2022-11-20T01:36:15;-1.30;99.90
30134;DHT22;16946;49.984;10.672;2022-11-20T01:36:46;-1.20;99.90
30134;DHT22;16946;49.984;10.672;2022-11-20T01:37:16;-1.20;99.90
30134;DHT22;16946;49.984;10.672;2022-11-20T01:37:47;-1.20;99.90
30134;DHT22;16946;49.984;10.672;2022-11-20T01:38:18;-1.20;99.90
30134;DHT22;16946;49.984;10.672;2022-11-20T01:38:54;-1.20;99.90
30134;DHT22;16946;49.984;10.672;2022-11-20T01:39:26;-1.20;99.90
30134;DHT22;16946;49.984;10.672;2022-11-20T01:39:57;-1.10;99.90
30134;DHT22;16946;49.984;10.672;2022-11-20T01:40:27;-1.00;99.90
30134;DHT22;16946;49.984;10.672;2022-11-20T01:40:58;-0.90;99.90
30134;DHT22;16946;49.984;10.672;2022-11-20T01:41:31;-0.90;99.90
30134;DHT22;16946;49.984;10.672;2022-11-20T01:42:20;-0.80;99.90
30134;DHT22;16946;49.984;10.672;2022-11-20T01:43:17;-0.80;99.90
30134;DHT22;16946;49.984;10.672;2022-11-20T01:43:51;-0.70;99.90
30134;DHT22;16946;49.984;10.672;2022-11-20T01:44:48;-0.70;99.90
30134;DHT22;16946;49.984;10.672;2022-11-20T01:46:19;-0.60;99.90
30134;DHT22;16946;49.984;10.672;2022-11-20T01:46:59;-0.50;99.90
30134;DHT22;16946;49.984;10.672;2022-11-20T01:47:44;-0.50;99.90
30134;DHT22;16946;49.984;10.672;2022-11-20T01:48:16;-0.40;99.90
30134;DHT22;16946;49.984;10.672;2022-11-20T01:49:48;-0.40;99.90
30134;DHT22;16946;49.984;10.672;2022-11-20T01:50:26;-0.40;99.90
30134;DHT22;16946;49.984;10.672;2022-11-20T01:51:00;-0.50;99.90
30134;DHT22;16946;49.984;10.672;2022-11-20T01:52:27;-0.50;99.90
30134;DHT22;16946;49.984;10.672;2022-11-20T01:53:01;-0.50;99.90
30134;DHT22;16946;49.984;10.672;2022-11-20T01:53:36;-0.50;99.90
30134;DHT22;16946;49.984;10.672;2022-11-20T01:54:10;-0.50;99.90
30134;DHT22;16946;49.984;10.672;2022-11-20T01:54:51;-0.50;99.90
30134;DHT22;16946;49.984;10.672;2022-11-20T01:55:27;-0.50;99.90
30134;DHT22;16946;49.984;10.672;2022-11-20T01:56:00;-0.50;99.90
30134;DHT22;16946;49.984;10.672;2022-11-20T01:56:36;-0.50;99.90
30134;DHT22;16946;49.984;10.672;2022-11-20T01:57:09;-0.50;99.90
30134;DHT22;16946;49.984;10.672;2022-11-20T01:57:44;-0.60;99.90
30134;DHT22;16946;49.984;10.672;2022-11-20T01:58:17;-0.70;99.90
30134;DHT22;16946;49.984;10.672;2022-11-20T01:58:53;-0.70;99.90
30134;DHT22;16946;49.984;10.672;2022-11-20T01:59:26;-0.70;99.90
30134;DHT22;16946;49.984;10.672;2022-11-20T02:00:03;-0.70;99.90
30134;DHT22;16946;49.984;10.672;2022-11-20T02:00:35;-0.70;99.90
30134;DHT22;16946;49.984;10.672;2022-11-20T02:01:05;-0.70;99.90
30134;DHT22;16946;49.984;10.672;2022-11-20T02:01:36;-0.70;99.90
30134;DHT22;16946;49.984;10.672;2022-11-20T02:02:07;-0.70;99.90
30134;DHT22;16946;49.984;10.672;2022-11-20T02:02:39;-0.70;99.90
30134;DHT22;16946;49.984;10.672;2022-11-20T02:03:13;-0.70;99.90
30134;DHT22;16946;49.984;10.672;2022-11-20T02:03:45;-0.70;99.90
30134;DHT22;16946;49.984;10.672;2022-11-20T02:04:15;-0.70;99.90
30134;DHT22;16946;49.984;10.672;2022-11-20T02:04:47;-0.70;99.90
30134;DHT22;16946;49.984;10.672;2022-11-20T02:05:27;-0.70;99.90
30134;DHT22;16946;49.984;10.672;2022-11-20T02:06:13;-0.70;99.90
30134;DHT22;16946;49.984;10.672;2022-11-20T02:06:57;-0.60;99.90
30134;DHT22;16946;49.984;10.672;2022-11-20T02:07:30;-0.60;99.90
30134;DHT22;16946;49.984;10.672;2022-11-20T02:08:02;-0.60;99.90
30134;DHT22;16946;49.984;10.672;2022-11-20T02:08:34;-0.50;99.90
30134;DHT22;16946;49.984;10.672;2022-11-20T02:09:05;-0.50;99.90
30134;DHT22;16946;49.984;10.672;2022-11-20T02:09:36;-0.40;99.90
30134;DHT22;16946;49.984;10.672;2022-11-20T02:10:06;-0.40;99.90
30134;DHT22;16946;49.984;10.672;2022-11-20T02:10:37;-0.40;99.90
30134;DHT22;16946;49.984;10.672;2022-11-20T02:11:08;-0.40;99.90
30134;DHT22;16946;49.984;10.672;2022-11-20T02:11:39;-0.30;99.90
30134;DHT22;16946;49.984;10.672;2022-11-20T02:12:10;-0.30;99.90
30134;DHT22;16946;49.984;10.672;2022-11-20T02:13:00;-0.20;99.90
30134;DHT22;16946;49.984;10.672;2022-11-20T02:13:50;-0.20;99.90
30134;DHT22;16946;49.984;10.672;2022-11-20T02:14:22;-0.20;99.90
30134;DHT22;16946;49.984;10.672;2022-11-20T02:14:53;-0.10;99.90
30134;DHT22;16946;49.984;10.672;2022-11-20T02:15:24;-0.10;99.90
30134;DHT22;16946;49.984;10.672;2022-11-20T02:15:54;-0.20;99.90
30134;DHT22;16946;49.984;10.672;2022-11-20T02:16:29;-0.10;99.90
30134;DHT22;16946;49.984;10.672;2022-11-20T02:17:00;-0.10;99.90
30134;DHT22;16946;49.984;10.672;2022-11-20T02:17:30;-0.10;99.90
30134;DHT22;16946;49.984;10.672;2022-11-20T02:18:01;-0.10;99.90
30134;DHT22;16946;49.984;10.672;2022-11-20T02:18:32;-0.10;99.90
30134;DHT22;16946;49.984;10.672;2022-11-20T02:19:07;-0.10;99.90
30134;DHT22;16946;49.984;10.672;2022-11-20T02:19:40;-0.10;99.90
30134;DHT22;16946;49.984;10.672;2022-11-20T02:20:10;-0.10;99.90
30134;DHT22;16946;49.984;10.672;2022-11-20T02:20:44;0.00;99.90
30134;DHT22;16946;49.984;10.672;2022-11-20T02:22:14;-0.10;99.90
30134;DHT22;16946;49.984;10.672;2022-11-20T02:22:53;-0.10;99.90
30134;DHT22;16946;49.984;10.672;2022-11-20T02:23:30;0.00;99.90
30134;DHT22;16946;49.984;10.672;2022-11-20T02:24:08;0.00;99.90
30134;DHT22;16946;49.984;10.672;2022-11-20T02:24:39;0.00;99.90
30134;DHT22;16946;49.984;10.672;2022-11-20T02:25:11;0.10;99.90
30134;DHT22;16946;49.984;10.672;2022-11-20T02:25:42;0.00;99.90
30134;DHT22;16946;49.984;10.672;2022-11-20T02:26:14;0.10;99.90
30134;DHT22;16946;49.984;10.672;2022-11-20T02:27:28;0.10;99.90
30134;DHT22;16946;49.984;10.672;2022-11-20T02:27:59;0.20;99.90
30134;DHT22;16946;49.984;10.672;2022-11-20T02:28:29;0.20;99.90
30134;DHT22;16946;49.984;10.672;2022-11-20T02:29:01;0.20;99.90
30134;DHT22;16946;49.984;10.672;2022-11-20T02:30:17;0.20;99.90
30134;DHT22;16946;49.984;10.672;2022-11-20T02:30:48;0.20;99.90
30134;DHT22;16946;49.984;10.672;2022-11-20T02:31:18;0.20;99.90
30134;DHT22;16946;49.984;10.672;2022-11-20T02:31:49;0.20;99.90
30134;DHT22;16946;49.984;10.672;2022-11-20T02:32:25;0.20;99.90
30134;DHT22;16946;49.984;10.672;2022-11-20T02:32:57;0.10;99.90
30134;DHT22;16946;49.984;10.672;2022-11-20T02:33:28;0.00;99.90
30134;DHT22;16946;49.984;10.672;2022-11-20T02:33:58;-0.10;99.90
30134;DHT22;16946;49.984;10.672;2022-11-20T02:34:29;-0.20;99.90
30134;DHT22;16946;49.984;10.672;2022-11-20T02:35:48;-0.30;99.90
30134;DHT22;16946;49.984;10.672;2022-11-20T02:36:19;-0.30;99.90
30134;DHT22;16946;49.984;10.672;2022-11-20T02:36:50;-0.30;99.90
30134;DHT22;16946;49.984;10.672;2022-11-20T02:37:22;-0.30;99.90
30134;DHT22;16946;49.984;10.672;2022-11-20T02:37:55;-0.40;99.90
30134;DHT22;16946;49.984;10.672;2022-11-20T02:38:26;-0.40;99.90
30134;DHT22;16946;49.984;10.672;2022-11-20T02:38:56;-0.40;99.90
30134;DHT22;16946;49.984;10.672;2022-11-20T02:39:27;-0.40;99.90
30134;DHT22;16946;49.984;10.672;2022-11-20T02:39:58;-0.40;99.90
30134;DHT22;16946;49.984;10.672;2022-11-20T02:40:29;-0.40;99.90
30134;DHT22;16946;49.984;10.672;2022-11-20T02:40:59;-0.40;99.90
30134;DHT22;16946;49.984;10.672;2022-11-20T02:41:37;-0.40;99.90
30134;DHT22;16946;49.984;10.672;2022-11-20T02:42:07;-0.50;99.90
30134;DHT22;16946;49.984;10.672;2022-11-20T02:42:38;-0.60;99.90
30134;DHT22;16946;49.984;10.672;2022-11-20T02:43:09;-0.60;99.90
30134;DHT22;16946;49.984;10.672;2022-11-20T02:43:39;-0.70;99.90
30134;DHT22;16946;49.984;10.672;2022-11-20T02:44:10;-0.70;99.90
30134;DHT22;16946;49.984;10.672;2022-11-20T02:44:41;-0.70;99.90
30134;DHT22;16946;49.984;10.672;2022-11-20T02:45:11;-0.60;99.90
30134;DHT22;16946;49.984;10.672;2022-11-20T02:45:42;-0.50;99.90
30134;DHT22;16946;49.984;10.672;2022-11-20T02:46:13;-0.40;99.90
30134;DHT22;16946;49.984;10.672;2022-11-20T02:46:44;-0.40;99.90
30134;DHT22;16946;49.984;10.672;2022-11-20T02:47:14;-0.40;99.90
30134;DHT22;16946;49.984;10.672;2022-11-20T02:47:45;-0.30;99.90
30134;DHT22;16946;49.984;10.672;2022-11-20T02:48:16;-0.20;99.90
30134;DHT22;16946;49.984;10.672;2022-11-20T02:48:46;-0.10;99.90
30134;DHT22;16946;49.984;10.672;2022-11-20T02:49:17;-0.10;99.90
30134;DHT22;16946;49.984;10.672;2022-11-20T02:49:47;-0.10;99.90
30134;DHT22;16946;49.984;10.672;2022-11-20T02:50:18;0.00;99.90
30134;DHT22;16946;49.984;10.672;2022-11-20T02:50:49;0.00;99.90
30134;DHT22;16946;49.984;10.672;2022-11-20T02:51:19;0.00;99.90
30134;DHT22;16946;49.984;10.672;2022-11-20T02:51:50;0.10;99.90
30134;DHT22;16946;49.984;10.672;2022-11-20T02:52:21;0.10;99.90
30134;DHT22;16946;49.984;10.672;2022-11-20T02:52:51;0.10;99.90
30134;DHT22;16946;49.984;10.672;2022-11-20T02:53:22;0.10;99.90
30134;DHT22;16946;49.984;10.672;2022-11-20T02:53:52;0.00;99.90
30134;DHT22;16946;49.984;10.672;2022-11-20T02:54:23;0.00;99.90
30134;DHT22;16946;49.984;10.672;2022-11-20T02:54:54;-0.10;99.90
30134;DHT22;16946;49.984;10.672;2022-11-20T02:55:24;-0.10;99.90
30134;DHT22;16946;49.984;10.672;2022-11-20T02:55:55;-0.20;99.90
30134;DHT22;16946;49.984;10.672;2022-11-20T02:56:26;-0.20;99.90
30134;DHT22;16946;49.984;10.672;2022-11-20T02:56:56;-0.20;99.90
30134;DHT22;16946;49.984;10.672;2022-11-20T02:57:27;-0.20;99.90
30134;DHT22;16946;49.984;10.672;2022-11-20T02:57:58;-0.20;99.90
30134;DHT22;16946;49.984;10.672;2022-11-20T02:58:28;-0.20;99.90
30134;DHT22;16946;49.984;10.672;2022-11-20T02:58:59;-0.20;99.90
30134;DHT22;16946;49.984;10.672;2022-11-20T02:59:29;-0.20;99.90
30134;DHT22;16946;49.984;10.672;2022-11-20T03:00:00;-0.10;99.90
30134;DHT22;16946;49.984;10.672;2022-11-20T03:00:31;-0.10;99.90
30134;DHT22;16946;49.984;10.672;2022-11-20T03:01:02;-0.20;99.90
30134;DHT22;16946;49.984;10.672;2022-11-20T03:01:32;-0.10;99.90
30134;DHT22;16946;49.984;10.672;2022-11-20T03:02:03;-0.10;99.90
30134;DHT22;16946;49.984;10.672;2022-11-20T03:02:34;0.00;99.90
30134;DHT22;16946;49.984;10.672;2022-11-20T03:03:04;0.00;99.90
30134;DHT22;16946;49.984;10.672;2022-11-20T03:03:35;0.00;99.90
30134;DHT22;16946;49.984;10.672;2022-11-20T03:04:06;0.00;99.90
30134;DHT22;16946;49.984;10.672;2022-11-20T03:04:36;0.00;99.90
30134;DHT22;16946;49.984;10.672;2022-11-20T03:05:07;0.00;99.90
30134;DHT22;16946;49.984;10.672;2022-11-20T03:05:38;0.00;99.90
30134;DHT22;16946;49.984;10.672;2022-11-20T03:06:09;0.10;99.90
30134;DHT22;16946;49.984;10.672;2022-11-20T03:06:39;0.10;99.90
30134;DHT22;16946;49.984;10.672;2022-11-20T03:07:10;0.10;99.90
30134;DHT22;16946;49.984;10.672;2022-11-20T03:07:40;0.10;99.90
30134;DHT22;16946;49.984;10.672;2022-11-20T03:08:11;0.10;99.90
30134;DHT22;16946;49.984;10.672;2022-11-20T03:08:42;0.10;99.90
30134;DHT22;16946;49.984;10.672;2022-11-20T03:09:12;0.10;99.90
30134;DHT22;16946;49.984;10.672;2022-11-20T03:09:43;0.00;99.90
30134;DHT22;16946;49.984;10.672;2022-11-20T03:10:14;0.00;99.90
30134;DHT22;16946;49.984;10.672;2022-11-20T03:10:44;0.00;99.90
30134;DHT22;16946;49.984;10.672;2022-11-20T03:11:15;-0.10;99.90
30134;DHT22;16946;49.984;10.672;2022-11-20T03:11:45;-0.20;99.90
30134;DHT22;16946;49.984;10.672;2022-11-20T03:12:16;-0.30;99.90
30134;DHT22;16946;49.984;10.672;2022-11-20T03:12:47;-0.40;99.90
30134;DHT22;16946;49.984;10.672;2022-11-20T03:13:17;-0.40;99.90
30134;DHT22;16946;49.984;10.672;2022-11-20T03:13:48;-0.40;99.90
30134;DHT22;16946;49.984;10.672;2022-11-20T03:14:18;-0.40;99.90
30134;DHT22;16946;49.984;10.672;2022-11-20T03:14:49;-0.40;99.90
30134;DHT22;16946;49.984;10.672;2022-11-20T03:15:19;-0.40;99.90
30134;DHT22;16946;49.984;10.672;2022-11-20T03:15:50;-0.40;99.90
30134;DHT22;16946;49.984;10.672;2022-11-20T03:16:22;-0.40;99.90
30134;DHT22;16946;49.984;10.672;2022-11-20T03:16:53;-0.40;99.90
30134;DHT22;16946;49.984;10.672;2022-11-20T03:17:23;-0.40;99.90
30134;DHT22;16946;49.984;10.672;2022-11-20T03:17:54;-0.40;99.90
30134;DHT22;16946;49.984;10.672;2022-11-20T03:18:28;-0.40;99.90
30134;DHT22;16946;49.984;10.672;2022-11-20T03:18:59;-0.50;99.90
30134;DHT22;16946;49.984;10.672;2022-11-20T03:19:30;-0.60;99.90
30134;DHT22;16946;49.984;10.672;2022-11-20T03:20:01;-0.60;99.90
30134;DHT22;16946;49.984;10.672;2022-11-20T03:20:33;-0.70;99.90
30134;DHT22;16946;49.984;10.672;2022-11-20T03:21:04;-0.70;99.90
30134;DHT22;16946;49.984;10.672;2022-11-20T03:21:35;-0.70;99.90
30134;DHT22;16946;49.984;10.672;2022-11-20T03:22:06;-0.70;99.90
30134;DHT22;16946;49.984;10.672;2022-11-20T03:22:36;-0.70;99.90
30134;DHT22;16946;49.984;10.672;2022-11-20T03:23:07;-0.70;99.90
30134;DHT22;16946;49.984;10.672;2022-11-20T03:23:38;-0.70;99.90
30134;DHT22;16946;49.984;10.672;2022-11-20T03:24:08;-0.70;99.90
30134;DHT22;16946;49.984;10.672;2022-11-20T03:24:39;-0.70;99.90
30134;DHT22;16946;49.984;10.672;2022-11-20T03:25:09;-0.70;99.90
30134;DHT22;16946;49.984;10.672;2022-11-20T03:25:40;-0.70;99.90
30134;DHT22;16946;49.984;10.672;2022-11-20T03:26:12;-0.70;99.90